sensor_id;sensor_type;location;lat;lon;timestamp;pressure;altitude;pressure_sealevel;temperature
68745;BMP180;66104;45.456;11.064;2023-02-18T00:01:26;101950.00;;;7.82
68745;BMP180;66104;45.456;11.064;2023-02-18T00:04:03;101947.00;;;7.80
68745;BMP180;66104;45.456;11.064;2023-02-18T00:06:40;101955.20;;;7.80
68745;BMP180;66104;45.456;11.064;2023-02-18T00:09:18;101956.40;;;7.76
68745;BMP180;66104;45.456;11.064;2023-02-18T00:11:55;101952.40;;;7.70
68745;BMP180;66104;45.456;11.064;2023-02-18T00:14:33;101949.80;;;7.70
68745;BMP180;66104;45.456;11.064;2023-02-18T00:17:10;101947.00;;;7.70
68745;BMP180;66104;45.456;11.064;2023-02-18T00:19:47;101947.40;;;7.70
68745;BMP180;66104;45.456;11.064;2023-02-18T00:22:24;101942.20;;;7.70
68745;BMP180;66104;45.456;11.064;2023-02-18T00:25:01;101942.40;;;7.70
68745;BMP180;66104;45.456;11.064;2023-02-18T00:27:38;101943.60;;;7.70
68745;BMP180;66104;45.456;11.064;2023-02-18T00:30:18;101938.60;;;7.70
68745;BMP180;66104;45.456;11.064;2023-02-18T00:32:56;101942.20;;;7.60
68745;BMP180;66104;45.456;11.064;2023-02-18T00:35:33;101942.40;;;7.60
68745;BMP180;66104;45.456;11.064;2023-02-18T00:38:10;101938.00;;;7.70
68745;BMP180;66104;45.456;11.064;2023-02-18T00:40:48;101938.20;;;7.70
68745;BMP180;66104;45.456;11.064;2023-02-18T00:43:25;101940.40;;;7.70
68745;BMP180;66104;45.456;11.064;2023-02-18T00:46:02;101944.20;;;7.70
68745;BMP180;66104;45.456;11.064;2023-02-18T00:48:42;101944.40;;;7.70
68745;BMP180;66104;45.456;11.064;2023-02-18T00:51:18;101948.40;;;7.70
68745;BMP180;66104;45.456;11.064;2023-02-18T00:53:54;101942.20;;;7.70
68745;BMP180;66104;45.456;11.064;2023-02-18T00:56:31;101941.80;;;7.70
68745;BMP180;66104;45.456;11.064;2023-02-18T00:59:08;101945.00;;;7.60
68745;BMP180;66104;45.456;11.064;2023-02-18T01:01:44;101939.00;;;7.60
68745;BMP180;66104;45.456;11.064;2023-02-18T01:04:21;101938.00;;;7.60
68745;BMP180;66104;45.456;11.064;2023-02-18T01:07:00;101937.60;;;7.62
68745;BMP180;66104;45.456;11.064;2023-02-18T01:09:38;101937.80;;;7.70
68745;BMP180;66104;45.456;11.064;2023-02-18T01:12:13;101934.40;;;7.70
68745;BMP180;66104;45.456;11.064;2023-02-18T01:14:50;101937.80;;;7.70
68745;BMP180;66104;45.456;11.064;2023-02-18T01:17:27;101932.60;;;7.76
68745;BMP180;66104;45.456;11.064;2023-02-18T01:20:05;101932.40;;;7.80
68745;BMP180;66104;45.456;11.064;2023-02-18T01:22:44;101932.00;;;7.80
68745;BMP180;66104;45.456;11.064;2023-02-18T01:25:22;101928.20;;;7.80
68745;BMP180;66104;45.456;11.064;2023-02-18T01:27:58;101924.20;;;7.80
68745;BMP180;66104;45.456;11.064;2023-02-18T01:30:35;101918.00;;;7.80
68745;BMP180;66104;45.456;11.064;2023-02-18T01:33:11;101914.40;;;7.80
68745;BMP180;66104;45.456;11.064;2023-02-18T01:35:48;101913.40;;;7.80
68745;BMP180;66104;45.456;11.064;2023-02-18T01:38:25;101913.60;;;7.80
68745;BMP180;66104;45.456;11.064;2023-02-18T01:41:02;101911.00;;;7.80
68745;BMP180;66104;45.456;11.064;2023-02-18T01:43:40;101910.00;;;7.80
68745;BMP180;66104;45.456;11.064;2023-02-18T01:46:23;101911.60;;;7.80
68745;BMP180;66104;45.456;11.064;2023-02-18T01:49:02;101907.20;;;7.80
68745;BMP180;66104;45.456;11.064;2023-02-18T01:51:42;101905.80;;;7.78
68745;BMP180;66104;45.456;11.064;2023-02-18T01:54:24;101907.40;;;7.70
68745;BMP180;66104;45.456;11.064;2023-02-18T01:57:08;101906.60;;;7.60
68745;BMP180;66104;45.456;11.064;2023-02-18T01:59:51;101908.20;;;7.30
68745;BMP180;66104;45.456;11.064;2023-02-18T02:02:31;101914.20;;;7.10
68745;BMP180;66104;45.456;11.064;2023-02-18T02:05:10;101914.60;;;7.00
68745;BMP180;66104;45.456;11.064;2023-02-18T02:07:49;101908.00;;;7.00
68745;BMP180;66104;45.456;11.064;2023-02-18T02:10:41;101908.60;;;6.90
68745;BMP180;66104;45.456;11.064;2023-02-18T02:16:14;101904.80;;;6.80
68745;BMP180;66104;45.456;11.064;2023-02-18T02:19:17;101905.00;;;6.70
68745;BMP180;66104;45.456;11.064;2023-02-18T02:25:51;101911.80;;;6.64
68745;BMP180;66104;45.456;11.064;2023-02-18T02:29:14;101911.00;;;6.66
68745;BMP180;66104;45.456;11.064;2023-02-18T02:32:29;101912.00;;;6.70
68745;BMP180;66104;45.456;11.064;2023-02-18T02:35:16;101914.80;;;6.78
68745;BMP180;66104;45.456;11.064;2023-02-18T02:38:04;101910.40;;;6.80
68745;BMP180;66104;45.456;11.064;2023-02-18T02:40:56;101909.20;;;6.80
68745;BMP180;66104;45.456;11.064;2023-02-18T02:43:45;101905.00;;;6.80
68745;BMP180;66104;45.456;11.064;2023-02-18T02:46:32;101906.00;;;6.80
68745;BMP180;66104;45.456;11.064;2023-02-18T02:49:27;101902.20;;;6.90
68745;BMP180;66104;45.456;11.064;2023-02-18T02:52:13;101899.20;;;6.90
68745;BMP180;66104;45.456;11.064;2023-02-18T02:54:53;101883.60;;;7.00
68745;BMP180;66104;45.456;11.064;2023-02-18T02:57:49;101883.20;;;6.96
68745;BMP180;66104;45.456;11.064;2023-02-18T03:00:42;101882.20;;;6.90
68745;BMP180;66104;45.456;11.064;2023-02-18T03:10:03;101874.80;;;6.76
68745;BMP180;66104;45.456;11.064;2023-02-18T03:12:54;101878.60;;;6.70
68745;BMP180;66104;45.456;11.064;2023-02-18T03:15:41;101878.60;;;6.68
68745;BMP180;66104;45.456;11.064;2023-02-18T03:18:28;101879.00;;;6.70
68745;BMP180;66104;45.456;11.064;2023-02-18T03:21:10;101877.80;;;6.62
68745;BMP180;66104;45.456;11.064;2023-02-18T03:23:55;101877.40;;;6.68
68745;BMP180;66104;45.456;11.064;2023-02-18T03:26:37;101875.60;;;6.70
68745;BMP180;66104;45.456;11.064;2023-02-18T03:29:19;101873.80;;;6.60
68745;BMP180;66104;45.456;11.064;2023-02-18T03:32:02;101876.40;;;6.50
68745;BMP180;66104;45.456;11.064;2023-02-18T03:34:44;101878.00;;;6.40
68745;BMP180;66104;45.456;11.064;2023-02-18T03:37:23;101877.00;;;6.30
68745;BMP180;66104;45.456;11.064;2023-02-18T03:40:04;101876.80;;;6.30
68745;BMP180;66104;45.456;11.064;2023-02-18T03:42:41;101872.80;;;6.20
68745;BMP180;66104;45.456;11.064;2023-02-18T03:45:19;101877.60;;;6.10
68745;BMP180;66104;45.456;11.064;2023-02-18T03:47:55;101881.40;;;6.08
68745;BMP180;66104;45.456;11.064;2023-02-18T03:50:32;101883.20;;;6.00
68745;BMP180;66104;45.456;11.064;2023-02-18T03:53:10;101887.40;;;6.00
68745;BMP180;66104;45.456;11.064;2023-02-18T03:55:48;101886.00;;;6.00
68745;BMP180;66104;45.456;11.064;2023-02-18T03:58:25;101882.00;;;5.94
68745;BMP180;66104;45.456;11.064;2023-02-18T04:01:02;101877.80;;;5.90
68745;BMP180;66104;45.456;11.064;2023-02-18T04:03:40;101876.00;;;5.80
68745;BMP180;66104;45.456;11.064;2023-02-18T04:06:16;101873.80;;;5.74
68745;BMP180;66104;45.456;11.064;2023-02-18T04:08:52;101882.60;;;5.70
68745;BMP180;66104;45.456;11.064;2023-02-18T04:11:29;101884.80;;;5.70
68745;BMP180;66104;45.456;11.064;2023-02-18T04:14:06;101879.60;;;5.66
68745;BMP180;66104;45.456;11.064;2023-02-18T04:16:43;101884.80;;;5.70
68745;BMP180;66104;45.456;11.064;2023-02-18T04:19:21;101884.80;;;5.68
68745;BMP180;66104;45.456;11.064;2023-02-18T04:22:00;101883.40;;;5.66
68745;BMP180;66104;45.456;11.064;2023-02-18T04:24:36;101884.20;;;5.68
68745;BMP180;66104;45.456;11.064;2023-02-18T04:27:13;101880.80;;;5.60
68745;BMP180;66104;45.456;11.064;2023-02-18T04:29:51;101886.20;;;5.50
68745;BMP180;66104;45.456;11.064;2023-02-18T04:32:28;101887.60;;;5.46
68745;BMP180;66104;45.456;11.064;2023-02-18T04:35:06;101890.00;;;5.40
68745;BMP180;66104;45.456;11.064;2023-02-18T04:37:45;101892.00;;;5.40
68745;BMP180;66104;45.456;11.064;2023-02-18T04:40:23;101893.80;;;5.30
68745;BMP180;66104;45.456;11.064;2023-02-18T04:43:03;101892.20;;;5.30
68745;BMP180;66104;45.456;11.064;2023-02-18T04:45:40;101902.20;;;5.40
68745;BMP180;66104;45.456;11.064;2023-02-18T04:48:16;101907.00;;;5.40
68745;BMP180;66104;45.456;11.064;2023-02-18T04:50:53;101914.80;;;5.40
68745;BMP180;66104;45.456;11.064;2023-02-18T04:53:31;101899.60;;;5.50
68745;BMP180;66104;45.456;11.064;2023-02-18T04:56:09;101900.00;;;5.50
68745;BMP180;66104;45.456;11.064;2023-02-18T04:58:45;101899.00;;;5.50
68745;BMP180;66104;45.456;11.064;2023-02-18T05:01:22;101900.00;;;5.50
68745;BMP180;66104;45.456;11.064;2023-02-18T05:03:58;101897.20;;;5.42
68745;BMP180;66104;45.456;11.064;2023-02-18T05:06:35;101896.80;;;5.30
68745;BMP180;66104;45.456;11.064;2023-02-18T05:09:13;101901.80;;;5.30
68745;BMP180;66104;45.456;11.064;2023-02-18T05:11:50;101908.80;;;5.30
68745;BMP180;66104;45.456;11.064;2023-02-18T05:14:27;101908.00;;;5.30
68745;BMP180;66104;45.456;11.064;2023-02-18T05:17:04;101906.60;;;5.30
68745;BMP180;66104;45.456;11.064;2023-02-18T05:19:42;101911.60;;;5.30
68745;BMP180;66104;45.456;11.064;2023-02-18T05:22:19;101910.60;;;5.38
68745;BMP180;66104;45.456;11.064;2023-02-18T05:24:57;101909.40;;;5.40
68745;BMP180;66104;45.456;11.064;2023-02-18T05:27:38;101905.60;;;5.50
68745;BMP180;66104;45.456;11.064;2023-02-18T05:30:17;101904.40;;;5.50
68745;BMP180;66104;45.456;11.064;2023-02-18T05:32:54;101902.40;;;5.54
68745;BMP180;66104;45.456;11.064;2023-02-18T05:35:31;101900.40;;;5.50
68745;BMP180;66104;45.456;11.064;2023-02-18T05:38:09;101903.20;;;5.54
68745;BMP180;66104;45.456;11.064;2023-02-18T05:40:46;101902.60;;;5.50
68745;BMP180;66104;45.456;11.064;2023-02-18T05:43:23;101907.60;;;5.50
68745;BMP180;66104;45.456;11.064;2023-02-18T05:46:01;101909.60;;;5.40
68745;BMP180;66104;45.456;11.064;2023-02-18T05:48:37;101911.80;;;5.30
68745;BMP180;66104;45.456;11.064;2023-02-18T05:51:15;101906.60;;;5.28
68745;BMP180;66104;45.456;11.064;2023-02-18T05:53:52;101907.60;;;5.20
68745;BMP180;66104;45.456;11.064;2023-02-18T05:56:30;101913.00;;;5.20
68745;BMP180;66104;45.456;11.064;2023-02-18T05:59:07;101922.00;;;5.10
68745;BMP180;66104;45.456;11.064;2023-02-18T06:01:45;101928.00;;;5.10
68745;BMP180;66104;45.456;11.064;2023-02-18T06:04:23;101924.80;;;5.12
68745;BMP180;66104;45.456;11.064;2023-02-18T06:06:59;101928.80;;;5.16
68745;BMP180;66104;45.456;11.064;2023-02-18T06:09:36;101928.40;;;5.10
68745;BMP180;66104;45.456;11.064;2023-02-18T06:12:14;101930.20;;;5.10
68745;BMP180;66104;45.456;11.064;2023-02-18T06:14:52;101933.00;;;5.08
68745;BMP180;66104;45.456;11.064;2023-02-18T06:17:29;101937.00;;;5.10
68745;BMP180;66104;45.456;11.064;2023-02-18T06:20:11;101931.80;;;5.00
68745;BMP180;66104;45.456;11.064;2023-02-18T06:22:49;101934.20;;;4.90
68745;BMP180;66104;45.456;11.064;2023-02-18T06:25:25;101947.80;;;4.90
68745;BMP180;66104;45.456;11.064;2023-02-18T06:28:02;101941.40;;;4.92
68745;BMP180;66104;45.456;11.064;2023-02-18T06:30:40;101941.80;;;5.00
68745;BMP180;66104;45.456;11.064;2023-02-18T06:33:15;101943.60;;;5.10
68745;BMP180;66104;45.456;11.064;2023-02-18T06:36:00;101949.60;;;5.20
68745;BMP180;66104;45.456;11.064;2023-02-18T06:38:36;101951.00;;;5.20
68745;BMP180;66104;45.456;11.064;2023-02-18T06:41:15;101957.00;;;5.20
68745;BMP180;66104;45.456;11.064;2023-02-18T06:43:52;101953.20;;;5.20
68745;BMP180;66104;45.456;11.064;2023-02-18T06:46:30;101944.40;;;5.20
68745;BMP180;66104;45.456;11.064;2023-02-18T06:49:07;101948.40;;;5.20
68745;BMP180;66104;45.456;11.064;2023-02-18T06:51:44;101949.00;;;5.20
68745;BMP180;66104;45.456;11.064;2023-02-18T06:54:22;101946.60;;;5.20
68745;BMP180;66104;45.456;11.064;2023-02-18T06:57:00;101947.20;;;5.24
68745;BMP180;66104;45.456;11.064;2023-02-18T06:59:38;101947.40;;;5.30
68745;BMP180;66104;45.456;11.064;2023-02-18T07:02:17;101941.60;;;5.30
68745;BMP180;66104;45.456;11.064;2023-02-18T07:04:53;101945.20;;;5.40
68745;BMP180;66104;45.456;11.064;2023-02-18T07:07:30;101945.80;;;5.30
68745;BMP180;66104;45.456;11.064;2023-02-18T07:10:09;101954.60;;;5.30
68745;BMP180;66104;45.456;11.064;2023-02-18T07:12:45;101954.80;;;5.30
68745;BMP180;66104;45.456;11.064;2023-02-18T07:15:22;101957.80;;;5.30
68745;BMP180;66104;45.456;11.064;2023-02-18T07:18:01;101953.40;;;5.28
68745;BMP180;66104;45.456;11.064;2023-02-18T07:20:38;101959.60;;;5.28
68745;BMP180;66104;45.456;11.064;2023-02-18T07:23:16;101955.40;;;5.20
68745;BMP180;66104;45.456;11.064;2023-02-18T07:25:52;101959.60;;;5.20
68745;BMP180;66104;45.456;11.064;2023-02-18T07:28:37;101964.80;;;5.24
68745;BMP180;66104;45.456;11.064;2023-02-18T07:31:14;101957.60;;;5.30
68745;BMP180;66104;45.456;11.064;2023-02-18T07:33:51;101958.00;;;5.36
68745;BMP180;66104;45.456;11.064;2023-02-18T07:36:27;101962.80;;;5.40
68745;BMP180;66104;45.456;11.064;2023-02-18T07:39:05;101960.40;;;5.40
68745;BMP180;66104;45.456;11.064;2023-02-18T07:41:42;101957.60;;;5.50
68745;BMP180;66104;45.456;11.064;2023-02-18T07:44:21;101960.80;;;5.50
68745;BMP180;66104;45.456;11.064;2023-02-18T07:47:00;101965.60;;;5.40
68745;BMP180;66104;45.456;11.064;2023-02-18T07:49:37;101965.40;;;5.40
68745;BMP180;66104;45.456;11.064;2023-02-18T07:52:14;101966.20;;;5.40
68745;BMP180;66104;45.456;11.064;2023-02-18T07:54:52;101966.00;;;5.50
68745;BMP180;66104;45.456;11.064;2023-02-18T07:57:29;101952.80;;;5.60
68745;BMP180;66104;45.456;11.064;2023-02-18T08:00:10;101964.40;;;5.70
68745;BMP180;66104;45.456;11.064;2023-02-18T08:02:48;101963.40;;;5.70
68745;BMP180;66104;45.456;11.064;2023-02-18T08:05:26;101965.20;;;5.80
68745;BMP180;66104;45.456;11.064;2023-02-18T08:08:04;101969.80;;;5.82
68745;BMP180;66104;45.456;11.064;2023-02-18T08:10:40;101968.80;;;5.90
68745;BMP180;66104;45.456;11.064;2023-02-18T08:13:18;101968.60;;;5.90
68745;BMP180;66104;45.456;11.064;2023-02-18T08:15:55;101970.20;;;5.90
68745;BMP180;66104;45.456;11.064;2023-02-18T08:18:32;101962.80;;;6.00
68745;BMP180;66104;45.456;11.064;2023-02-18T08:21:09;101968.40;;;6.00
68745;BMP180;66104;45.456;11.064;2023-02-18T08:23:46;101967.40;;;6.08
68745;BMP180;66104;45.456;11.064;2023-02-18T08:26:24;101967.40;;;6.10
68745;BMP180;66104;45.456;11.064;2023-02-18T08:29:01;101967.20;;;6.10
68745;BMP180;66104;45.456;11.064;2023-02-18T08:31:38;101966.00;;;6.20
68745;BMP180;66104;45.456;11.064;2023-02-18T08:34:17;101966.60;;;6.18
68745;BMP180;66104;45.456;11.064;2023-02-18T08:36:54;101960.40;;;6.14
68745;BMP180;66104;45.456;11.064;2023-02-18T08:39:34;101962.00;;;6.20
68745;BMP180;66104;45.456;11.064;2023-02-18T08:42:12;101960.80;;;6.20
68745;BMP180;66104;45.456;11.064;2023-02-18T08:44:49;101959.20;;;6.26
68745;BMP180;66104;45.456;11.064;2023-02-18T08:47:27;101965.20;;;6.30
68745;BMP180;66104;45.456;11.064;2023-02-18T08:50:25;101959.80;;;6.36
68745;BMP180;66104;45.456;11.064;2023-02-18T08:53:03;101958.00;;;6.40
68745;BMP180;66104;45.456;11.064;2023-02-18T08:55:41;101959.20;;;6.50
68745;BMP180;66104;45.456;11.064;2023-02-18T08:58:19;101957.40;;;6.56
68745;BMP180;66104;45.456;11.064;2023-02-18T09:00:59;101948.00;;;6.60
68745;BMP180;66104;45.456;11.064;2023-02-18T09:03:37;101951.20;;;6.60
68745;BMP180;66104;45.456;11.064;2023-02-18T09:06:14;101956.20;;;6.60
68745;BMP180;66104;45.456;11.064;2023-02-18T09:08:52;101955.00;;;6.60
68745;BMP180;66104;45.456;11.064;2023-02-18T09:11:28;101957.60;;;6.68
68745;BMP180;66104;45.456;11.064;2023-02-18T09:14:06;101965.00;;;6.70
68745;BMP180;66104;45.456;11.064;2023-02-18T09:16:43;101963.20;;;6.70
68745;BMP180;66104;45.456;11.064;2023-02-18T09:19:21;101961.60;;;6.70
68745;BMP180;66104;45.456;11.064;2023-02-18T09:21:58;101954.60;;;6.80
68745;BMP180;66104;45.456;11.064;2023-02-18T09:24:40;101950.00;;;6.80
68745;BMP180;66104;45.456;11.064;2023-02-18T09:27:17;101946.00;;;6.84
68745;BMP180;66104;45.456;11.064;2023-02-18T09:29:55;101943.20;;;6.90
68745;BMP180;66104;45.456;11.064;2023-02-18T09:32:32;101944.00;;;6.90
68745;BMP180;66104;45.456;11.064;2023-02-18T09:35:12;101943.00;;;7.00
68745;BMP180;66104;45.456;11.064;2023-02-18T09:37:49;101943.00;;;7.10
68745;BMP180;66104;45.456;11.064;2023-02-18T09:40:32;101948.40;;;7.16
68745;BMP180;66104;45.456;11.064;2023-02-18T09:43:21;101943.80;;;7.20
68745;BMP180;66104;45.456;11.064;2023-02-18T09:46:01;101938.60;;;7.28
68745;BMP180;66104;45.456;11.064;2023-02-18T09:48:41;101933.60;;;7.30
68745;BMP180;66104;45.456;11.064;2023-02-18T09:51:20;101935.60;;;7.30
68745;BMP180;66104;45.456;11.064;2023-02-18T09:53:57;101933.00;;;7.30
68745;BMP180;66104;45.456;11.064;2023-02-18T09:56:38;101931.80;;;7.30
68745;BMP180;66104;45.456;11.064;2023-02-18T09:59:20;101932.20;;;7.30
68745;BMP180;66104;45.456;11.064;2023-02-18T10:01:58;101933.40;;;7.30
68745;BMP180;66104;45.456;11.064;2023-02-18T10:04:43;101931.00;;;7.34
68745;BMP180;66104;45.456;11.064;2023-02-18T10:07:31;101929.20;;;7.40
68745;BMP180;66104;45.456;11.064;2023-02-18T10:10:20;101937.40;;;7.40
68745;BMP180;66104;45.456;11.064;2023-02-18T10:12:59;101931.60;;;7.50
68745;BMP180;66104;45.456;11.064;2023-02-18T10:15:39;101930.60;;;7.50
68745;BMP180;66104;45.456;11.064;2023-02-18T10:18:29;101930.80;;;7.50
68745;BMP180;66104;45.456;11.064;2023-02-18T10:21:21;101932.00;;;7.60
68745;BMP180;66104;45.456;11.064;2023-02-18T10:24:06;101930.20;;;7.60
68745;BMP180;66104;45.456;11.064;2023-02-18T10:26:49;101926.20;;;7.70
68745;BMP180;66104;45.456;11.064;2023-02-18T10:29:28;101925.20;;;7.70
68745;BMP180;66104;45.456;11.064;2023-02-18T10:32:15;101923.40;;;7.70
68745;BMP180;66104;45.456;11.064;2023-02-18T10:35:02;101924.60;;;7.70
68745;BMP180;66104;45.456;11.064;2023-02-18T10:38:02;101920.40;;;7.70
68745;BMP180;66104;45.456;11.064;2023-02-18T10:40:56;101921.80;;;7.60
68745;BMP180;66104;45.456;11.064;2023-02-18T10:43:48;101919.40;;;7.70
68745;BMP180;66104;45.456;11.064;2023-02-18T10:46:41;101913.00;;;7.90
68745;BMP180;66104;45.456;11.064;2023-02-18T10:49:49;101910.60;;;8.00
68745;BMP180;66104;45.456;11.064;2023-02-18T10:52:32;101905.20;;;8.10
68745;BMP180;66104;45.456;11.064;2023-02-18T10:55:14;101902.80;;;8.20
68745;BMP180;66104;45.456;11.064;2023-02-18T10:57:54;101895.80;;;8.26
68745;BMP180;66104;45.456;11.064;2023-02-18T11:00:35;101895.20;;;8.30
68745;BMP180;66104;45.456;11.064;2023-02-18T11:03:20;101890.80;;;8.40
68745;BMP180;66104;45.456;11.064;2023-02-18T11:06:00;101888.20;;;8.40
68745;BMP180;66104;45.456;11.064;2023-02-18T11:08:44;101875.20;;;8.40
68745;BMP180;66104;45.456;11.064;2023-02-18T11:11:27;101868.60;;;8.50
68745;BMP180;66104;45.456;11.064;2023-02-18T11:14:08;101869.00;;;8.50
68745;BMP180;66104;45.456;11.064;2023-02-18T11:16:50;101868.60;;;8.60
68745;BMP180;66104;45.456;11.064;2023-02-18T11:19:45;101862.60;;;8.70
68745;BMP180;66104;45.456;11.064;2023-02-18T11:22:30;101858.00;;;8.70
68745;BMP180;66104;45.456;11.064;2023-02-18T11:25:24;101851.80;;;8.70
68745;BMP180;66104;45.456;11.064;2023-02-18T11:28:04;101844.60;;;8.76
68745;BMP180;66104;45.456;11.064;2023-02-18T11:30:43;101842.20;;;8.80
68745;BMP180;66104;45.456;11.064;2023-02-18T11:33:25;101841.20;;;8.80
68745;BMP180;66104;45.456;11.064;2023-02-18T11:36:20;101840.60;;;8.82
68745;BMP180;66104;45.456;11.064;2023-02-18T11:39:00;101835.80;;;8.80
68745;BMP180;66104;45.456;11.064;2023-02-18T11:41:44;101832.00;;;8.80
68745;BMP180;66104;45.456;11.064;2023-02-18T11:44:29;101830.00;;;8.80
68745;BMP180;66104;45.456;11.064;2023-02-18T11:47:24;101821.00;;;8.80
68745;BMP180;66104;45.456;11.064;2023-02-18T11:50:22;101817.80;;;8.90
68745;BMP180;66104;45.456;11.064;2023-02-18T11:52:59;101816.80;;;8.90
68745;BMP180;66104;45.456;11.064;2023-02-18T11:55:36;101816.00;;;8.96
68745;BMP180;66104;45.456;11.064;2023-02-18T11:58:16;101812.20;;;9.00
68745;BMP180;66104;45.456;11.064;2023-02-18T12:00:58;101804.00;;;9.00
68745;BMP180;66104;45.456;11.064;2023-02-18T12:03:45;101806.60;;;9.06
68745;BMP180;66104;45.456;11.064;2023-02-18T12:06:29;101798.80;;;9.10
68745;BMP180;66104;45.456;11.064;2023-02-18T12:09:21;101795.20;;;9.20
68745;BMP180;66104;45.456;11.064;2023-02-18T12:12:04;101799.60;;;9.20
68745;BMP180;66104;45.456;11.064;2023-02-18T12:14:41;101793.60;;;9.30
68745;BMP180;66104;45.456;11.064;2023-02-18T12:17:52;101782.80;;;9.40
68745;BMP180;66104;45.456;11.064;2023-02-18T12:20:59;101777.20;;;9.50
68745;BMP180;66104;45.456;11.064;2023-02-18T12:23:50;101772.20;;;9.52
68745;BMP180;66104;45.456;11.064;2023-02-18T12:26:38;101755.80;;;9.60
68745;BMP180;66104;45.456;11.064;2023-02-18T12:29:40;101752.40;;;9.70
68745;BMP180;66104;45.456;11.064;2023-02-18T12:32:41;101746.60;;;9.80
68745;BMP180;66104;45.456;11.064;2023-02-18T12:35:39;101743.40;;;9.90
68745;BMP180;66104;45.456;11.064;2023-02-18T12:38:57;101735.40;;;10.00
68745;BMP180;66104;45.456;11.064;2023-02-18T12:41:57;101732.40;;;10.10
68745;BMP180;66104;45.456;11.064;2023-02-18T12:44:44;101728.40;;;10.20
68745;BMP180;66104;45.456;11.064;2023-02-18T12:47:41;101728.60;;;10.30
68745;BMP180;66104;45.456;11.064;2023-02-18T12:57:40;101717.60;;;10.60
68745;BMP180;66104;45.456;11.064;2023-02-18T13:04:04;101700.00;;;10.80
68745;BMP180;66104;45.456;11.064;2023-02-18T13:07:18;101697.20;;;10.80
68745;BMP180;66104;45.456;11.064;2023-02-18T13:10:17;101690.40;;;10.80
68745;BMP180;66104;45.456;11.064;2023-02-18T13:13:07;101684.40;;;10.80
68745;BMP180;66104;45.456;11.064;2023-02-18T13:15:50;101682.60;;;10.90
68745;BMP180;66104;45.456;11.064;2023-02-18T13:18:34;101683.20;;;10.90
68745;BMP180;66104;45.456;11.064;2023-02-18T13:21:14;101677.40;;;10.90
68745;BMP180;66104;45.456;11.064;2023-02-18T13:23:57;101677.40;;;11.00
68745;BMP180;66104;45.456;11.064;2023-02-18T13:26:36;101673.80;;;11.10
68745;BMP180;66104;45.456;11.064;2023-02-18T13:29:27;101669.60;;;11.20
68745;BMP180;66104;45.456;11.064;2023-02-18T13:32:19;101664.20;;;11.30
68745;BMP180;66104;45.456;11.064;2023-02-18T13:35:07;101656.40;;;11.40
68745;BMP180;66104;45.456;11.064;2023-02-18T13:38:07;101651.80;;;11.44
68745;BMP180;66104;45.456;11.064;2023-02-18T13:40:48;101654.80;;;11.50
68745;BMP180;66104;45.456;11.064;2023-02-18T13:43:34;101654.80;;;11.50
68745;BMP180;66104;45.456;11.064;2023-02-18T13:46:14;101648.40;;;11.50
68745;BMP180;66104;45.456;11.064;2023-02-18T13:48:54;101645.00;;;11.50
68745;BMP180;66104;45.456;11.064;2023-02-18T13:51:44;101648.20;;;11.50
68745;BMP180;66104;45.456;11.064;2023-02-18T13:54:26;101647.60;;;11.60
68745;BMP180;66104;45.456;11.064;2023-02-18T13:57:11;101644.20;;;11.70
68745;BMP180;66104;45.456;11.064;2023-02-18T13:59:55;101647.00;;;11.70
68745;BMP180;66104;45.456;11.064;2023-02-18T14:02:37;101639.40;;;11.80
68745;BMP180;66104;45.456;11.064;2023-02-18T14:05:43;101638.60;;;11.80
68745;BMP180;66104;45.456;11.064;2023-02-18T14:08:35;101636.60;;;11.80
68745;BMP180;66104;45.456;11.064;2023-02-18T14:11:45;101632.00;;;11.80
68745;BMP180;66104;45.456;11.064;2023-02-18T14:14:47;101630.60;;;11.80
68745;BMP180;66104;45.456;11.064;2023-02-18T14:17:44;101629.20;;;11.80
68745;BMP180;66104;45.456;11.064;2023-02-18T14:20:48;101626.80;;;11.80
68745;BMP180;66104;45.456;11.064;2023-02-18T14:24:00;101612.80;;;11.80
68745;BMP180;66104;45.456;11.064;2023-02-18T14:26:51;101611.80;;;11.80
68745;BMP180;66104;45.456;11.064;2023-02-18T14:29:34;101605.20;;;11.80
68745;BMP180;66104;45.456;11.064;2023-02-18T14:32:18;101606.00;;;11.90
68745;BMP180;66104;45.456;11.064;2023-02-18T14:35:21;101598.40;;;11.90
68745;BMP180;66104;45.456;11.064;2023-02-18T14:38:32;101595.60;;;12.00
68745;BMP180;66104;45.456;11.064;2023-02-18T14:41:37;101590.80;;;12.00
68745;BMP180;66104;45.456;11.064;2023-02-18T14:44:44;101580.00;;;12.00
68745;BMP180;66104;45.456;11.064;2023-02-18T14:47:38;101574.80;;;12.00
68745;BMP180;66104;45.456;11.064;2023-02-18T14:50:19;101565.80;;;12.00
68745;BMP180;66104;45.456;11.064;2023-02-18T14:52:59;101570.80;;;11.98
68745;BMP180;66104;45.456;11.064;2023-02-18T14:55:45;101564.20;;;11.90
68745;BMP180;66104;45.456;11.064;2023-02-18T14:58:35;101563.60;;;11.90
68745;BMP180;66104;45.456;11.064;2023-02-18T15:01:22;101567.40;;;11.80
68745;BMP180;66104;45.456;11.064;2023-02-18T15:04:00;101565.40;;;11.80
68745;BMP180;66104;45.456;11.064;2023-02-18T15:06:39;101559.80;;;11.80
68745;BMP180;66104;45.456;11.064;2023-02-18T15:09:23;101557.00;;;11.80
68745;BMP180;66104;45.456;11.064;2023-02-18T15:12:04;101564.60;;;11.80
68745;BMP180;66104;45.456;11.064;2023-02-18T15:14:43;101563.00;;;11.76
68745;BMP180;66104;45.456;11.064;2023-02-18T15:17:24;101566.40;;;11.70
68745;BMP180;66104;45.456;11.064;2023-02-18T15:20:06;101564.60;;;11.68
68745;BMP180;66104;45.456;11.064;2023-02-18T15:22:44;101566.00;;;11.60
68745;BMP180;66104;45.456;11.064;2023-02-18T15:25:22;101562.40;;;11.58
68745;BMP180;66104;45.456;11.064;2023-02-18T15:28:00;101562.60;;;11.50
68745;BMP180;66104;45.456;11.064;2023-02-18T15:30:39;101561.20;;;11.50
68745;BMP180;66104;45.456;11.064;2023-02-18T15:33:20;101560.80;;;11.50
68745;BMP180;66104;45.456;11.064;2023-02-18T15:36:10;101559.80;;;11.50
68745;BMP180;66104;45.456;11.064;2023-02-18T15:38:50;101555.60;;;11.50
68745;BMP180;66104;45.456;11.064;2023-02-18T15:41:28;101554.40;;;11.50
68745;BMP180;66104;45.456;11.064;2023-02-18T15:44:15;101560.80;;;11.50